Ct Longford — 9HYM9 — position and weather

sailwx.info

Track history (hours):
 
Tides and Currents Weather Stations Pressure Air Temp Water Temp Dewpoint Dewpoint Depression Visibility Wind Speed Wind Dir Waves Ship Positions

Ct Longford

Last reported at 2017-Aug-20 19:35 UTC. Time now 2017-Aug-20 21:07 UTC.
Position N 36°08' W 005°22'.

Length 117 m; draft 7 m.

Type: Tanker. MMSI: 249706000.

Date/timePositionNaut miles runAvg speedWind from/ knotsBaromVisibWave heightAir tempDewpointWater temp
2017-Aug-20 19:35N 36°08' W 005°22'0 0.5
2017-Aug-20 19:29N 36°08' W 005°22'0 0.5
2017-Aug-20 18:59N 36°08' W 005°22'0 0.0
2017-Aug-20 18:29N 36°08' W 005°22'0 0.0
2017-Aug-20 16:31N 36°08' W 005°22'0 0.6
2017-Aug-20 16:17N 36°08' W 005°22'1 4.7
2017-Aug-20 16:00N 36°08' W 005°23'1 1.0
2017-Aug-20 15:31N 36°09' W 005°23'0 0.2
2017-Aug-20 15:00N 36°09' W 005°23'1 2.6
2017-Aug-20 14:31N 36°08' W 005°25'1 0.1
2017-Aug-20 04:20N 36°08' W 005°26'2 3.8
2017-Aug-20 03:56N 36°09' W 005°24'1 2.9
2017-Aug-20 03:30N 36°08' W 005°22'0 0.0
2017-Aug-20 03:00N 36°08' W 005°22'0 0.1
2017-Aug-20 02:21N 36°08' W 005°22'0 0.0
2017-Aug-20 02:00N 36°08' W 005°22'0 0.1
2017-Aug-20 01:30N 36°08' W 005°22'0 0.0
2017-Aug-20 01:00N 36°08' W 005°22'0 0.0
2017-Aug-20 00:24N 36°08' W 005°22'0 0.0
2017-Aug-20 00:00N 36°08' W 005°22'0 0.0
2017-Aug-19 23:30N 36°08' W 005°22'0 0.0
2017-Aug-19 23:00N 36°08' W 005°22'0 0.2
2017-Aug-19 22:30N 36°08' W 005°22'1 1.1
2017-Aug-19 22:00N 36°08' W 005°22'1 1.7
2017-Aug-19 21:14N 36°07' W 005°22'0 0.1
2017-Aug-19 20:59N 36°07' W 005°22'0 0.0
2017-Aug-19 20:29N 36°07' W 005°22'0 0.4
2017-Aug-19 19:47N 36°07' W 005°22'0 0.0
2017-Aug-19 19:14N 36°07' W 005°22'0 0.1
2017-Aug-19 18:56N 36°07' W 005°22'0 0.1
2017-Aug-19 18:26N 36°07' W 005°22'0 0.5
2017-Aug-19 17:47N 36°07' W 005°22'0 0.1
2017-Aug-19 17:02N 36°07' W 005°22'0 0.1
2017-Aug-19 16:38N 36°07' W 005°22'0 0.1
2017-Aug-19 16:11N 36°07' W 005°22'0 0.1
2017-Aug-19 15:47N 36°07' W 005°22'0 0.1
2017-Aug-19 15:29N 36°07' W 005°22'0 0.0
2017-Aug-19 14:56N 36°07' W 005°22'0 0.0
2017-Aug-19 13:59N 36°07' W 005°22'0 0.0
2017-Aug-19 13:20N 36°07' W 005°22'0 0.0
2017-Aug-19 12:56N 36°07' W 005°22'0 0.0
2017-Aug-19 12:31N 36°07' W 005°22'0 0.0
2017-Aug-19 12:00N 36°07' W 005°22'0 0.1
2017-Aug-19 11:28N 36°07' W 005°22'0 0.1
2017-Aug-19 11:00N 36°07' W 005°22'3 0.5
2017-Aug-19 06:09N 36°09' W 005°22'0 0.0
2017-Aug-19 06:00N 36°09' W 005°22'0 0.1
2017-Aug-19 05:30N 36°09' W 005°22'0 0.1
2017-Aug-19 03:57N 36°09' W 005°23'0 0.3
2017-Aug-19 03:27N 36°09' W 005°22'0 0.0
2017-Aug-19 03:00N 36°09' W 005°22'0 0.0
2017-Aug-19 02:27N 36°09' W 005°22'0 0.0
2017-Aug-19 00:09N 36°09' W 005°22'0 0.1
2017-Aug-18 23:46N 36°09' W 005°22'1 3.8
2017-Aug-18 23:26N 36°08' W 005°22'1 3.0
2017-Aug-18 22:58N 36°07' W 005°22'0 0.0
2017-Aug-18 22:10N 36°07' W 005°22'0 0.1
2017-Aug-18 21:58N 36°07' W 005°22'0 0.0
2017-Aug-18 21:28N 36°07' W 005°22'0 0.0
2017-Aug-18 20:58N 36°07' W 005°22'0 0.0
2017-Aug-18 20:25N 36°07' W 005°22'0 0.0
2017-Aug-18 20:00N 36°07' W 005°22'0 0.2
2017-Aug-18 19:30N 36°07' W 005°22'1 2.9
2017-Aug-18 19:00N 36°08' W 005°23'0 0.7
2017-Aug-18 18:29N 36°08' W 005°23'1 0.8
2017-Aug-18 17:02N 36°07' W 005°22'0 0.2
2017-Aug-18 16:53N 36°07' W 005°22'0 0.1
2017-Aug-18 16:29N 36°07' W 005°22'0 0.2
2017-Aug-18 15:59N 36°07' W 005°22'0 0.4
2017-Aug-18 15:26N 36°07' W 005°22'0 0.1
2017-Aug-18 14:56N 36°07' W 005°22'0 0.1
2017-Aug-18 14:29N 36°07' W 005°22'0 0.1
2017-Aug-18 13:26N 36°07' W 005°22'0 0.1
2017-Aug-18 12:59N 36°07' W 005°22'2 1.1
2017-Aug-18 11:35N 36°09' W 005°22'0 0.0
2017-Aug-18 11:23N 36°09' W 005°22'0 0.1
2017-Aug-18 10:59N 36°09' W 005°22'0 0.0
2017-Aug-18 10:20N 36°09' W 005°22'2 0.1
2017-Aug-17 12:05N 36°07' W 005°21'0 0.1
2017-Aug-17 11:59N 36°07' W 005°21'0 0.0
2017-Aug-17 11:26N 36°07' W 005°21'0 0.0
2017-Aug-17 10:59N 36°07' W 005°21'0 0.0
2017-Aug-17 10:29N 36°07' W 005°21'0 0.1
2017-Aug-17 10:00N 36°07' W 005°21'1 1.7
2017-Aug-17 09:30N 36°07' W 005°22'2 1.4
2017-Aug-17 08:07N 36°09' W 005°23'0 0.2
2017-Aug-17 07:55N 36°09' W 005°23'3 0.1
2017-Aug-15 21:25N 36°08' W 005°26'0 0.0
2017-Aug-15 21:00N 36°08' W 005°26'2 1.1
2017-Aug-15 18:58N 36°09' W 005°23'2 3.3
2017-Aug-15 18:25N 36°07' W 005°22'0 0.1
2017-Aug-15 17:55N 36°07' W 005°22'0 0.0
2017-Aug-15 17:28N 36°07' W 005°22'0 0.1
2017-Aug-15 15:16N 36°07' W 005°22'0 0.0
2017-Aug-15 12:13N 36°07' W 005°22'0 0.2
2017-Aug-15 11:58N 36°07' W 005°22'0 0.3
2017-Aug-15 11:22N 36°07' W 005°22'0 0.1
2017-Aug-15 11:00N 36°07' W 005°22'2 0.9
2017-Aug-15 08:31N 36°09' W 005°23'0 0.3
2017-Aug-15 08:30N 36°09' W 005°23'2 3.5
2017-Aug-15 07:58N 36°07' W 005°22'0 0.7
2017-Aug-15 07:24N 36°07' W 005°22'0 0.0
2017-Aug-15 06:06N 36°07' W 005°22'0 0.0
2017-Aug-15 06:00N 36°07' W 005°22'0 0.0
2017-Aug-15 05:30N 36°07' W 005°22'0 0.2
2017-Aug-15 05:00N 36°07' W 005°22'0 0.2
2017-Aug-15 04:21N 36°07' W 005°22'0 0.0
2017-Aug-15 03:57N 36°07' W 005°22'0 0.0
2017-Aug-15 02:09N 36°07' W 005°22'0 0.2
2017-Aug-15 02:00N 36°07' W 005°22'0 0.1
2017-Aug-15 01:27N 36°07' W 005°22'1 2.8
2017-Aug-15 01:00N 36°08' W 005°23'2 3.0
2017-Aug-15 00:30N 36°09' W 005°23'0 0.2
2017-Aug-15 00:00N 36°09' W 005°23'0 0.1
2017-Aug-14 23:30N 36°09' W 005°23'2 0.1
2017-Aug-14 06:35N 36°08' W 005°22'0 0.1
2017-Aug-14 05:08N 36°08' W 005°22'0 0.1
2017-Aug-14 05:00N 36°08' W 005°22'0 0.3
2017-Aug-14 04:30N 36°08' W 005°22'1 0.5
2017-Aug-14 02:43N 36°09' W 005°22'0 0.5
2017-Aug-14 02:29N 36°09' W 005°22'1 2.9
2017-Aug-14 02:01N 36°07' W 005°22'0 0.3
2017-Aug-14 01:31N 36°07' W 005°22'0 0.1
2017-Aug-13 23:55N 36°07' W 005°22'0 0.1
2017-Aug-13 23:25N 36°07' W 005°22'0 0.0
2017-Aug-13 22:52N 36°07' W 005°22'0 0.0
2017-Aug-13 22:19N 36°07' W 005°22'0 0.2
2017-Aug-13 21:58N 36°07' W 005°22'0 0.0
2017-Aug-13 21:25N 36°07' W 005°22'0 0.0
2017-Aug-13 20:43N 36°07' W 005°22'0 0.3
2017-Aug-13 20:13N 36°07' W 005°22'1 4.3
2017-Aug-13 19:59N 36°08' W 005°23'0 0.1
2017-Aug-13 17:23N 36°08' W 005°23'0 0.1
2017-Aug-13 16:50N 36°08' W 005°23'0 0.1
2017-Aug-13 16:29N 36°08' W 005°23'0 0.0
2017-Aug-13 15:59N 36°08' W 005°23'0 0.1
2017-Aug-13 15:17N 36°08' W 005°23'0 0.1
2017-Aug-13 14:14N 36°08' W 005°23'0 0.1
2017-Aug-13 13:59N 36°08' W 005°23'0 0.1
2017-Aug-13 13:20N 36°08' W 005°23'0 0.3
2017-Aug-13 12:56N 36°08' W 005°23'0 0.2
2017-Aug-13 12:26N 36°08' W 005°23'0 0.1
2017-Aug-13 12:00N 36°08' W 005°23'2 2.2
2017-Aug-13 11:19N 36°09' W 005°22'0 0.2
2017-Aug-13 10:59N 36°09' W 005°22'0 0.0
2017-Aug-13 10:26N 36°09' W 005°22'0 0.0
2017-Aug-13 09:59N 36°09' W 005°22'0 0.1
2017-Aug-13 09:30N 36°09' W 005°22'2 3.8
2017-Aug-13 09:00N 36°08' W 005°23'3 6.5
2017-Aug-13 08:31N 36°05' W 005°20'3 5.0
2017-Aug-13 08:00N 36°07' W 005°18'0 0.1
2017-Aug-13 07:27N 36°07' W 005°18'0 0.0
2017-Aug-13 06:57N 36°07' W 005°18'0 0.0
2017-Aug-13 06:27N 36°07' W 005°18'0 0.3
2017-Aug-13 06:00N 36°07' W 005°18'2 4.3
2017-Aug-13 05:30N 36°06' W 005°20'2 3.7
2017-Aug-13 05:00N 36°06' W 005°22'0 0.4
2017-Aug-13 04:28N 36°06' W 005°22'0 0.1
2017-Aug-13 03:58N 36°06' W 005°22'0 0.0
2017-Aug-13 03:28N 36°06' W 005°22'0 0.0
2017-Aug-13 02:58N 36°06' W 005°22'0 0.0
2017-Aug-13 02:28N 36°06' W 005°22'0 0.0
2017-Aug-13 01:55N 36°06' W 005°22'0 0.1
2017-Aug-13 01:28N 36°07' W 005°22'0 0.0
2017-Aug-13 00:58N 36°07' W 005°22'0 0.1
2017-Aug-13 00:28N 36°07' W 005°22'0 0.1
2017-Aug-12 23:58N 36°06' W 005°22'0 0.0
2017-Aug-12 23:28N 36°06' W 005°22'0 0.0
2017-Aug-12 22:58N 36°06' W 005°22'0 0.0
2017-Aug-12 22:28N 36°06' W 005°22'0 0.1
2017-Aug-12 21:58N 36°06' W 005°22'0 0.1
2017-Aug-12 21:28N 36°06' W 005°22'0 0.0
2017-Aug-12 20:58N 36°06' W 005°22'0 0.0
2017-Aug-12 20:28N 36°06' W 005°22'0 0.0
2017-Aug-12 19:58N 36°06' W 005°22'0 0.0
2017-Aug-12 19:13N 36°06' W 005°22'0 0.0
2017-Aug-12 18:52N 36°06' W 005°22'0 0.0
2017-Aug-12 18:25N 36°06' W 005°22'0 0.0
2017-Aug-12 17:58N 36°06' W 005°22'0 0.0
2017-Aug-12 17:28N 36°06' W 005°22'0 0.0
2017-Aug-12 16:58N 36°06' W 005°22'0 0.0
2017-Aug-12 16:28N 36°06' W 005°22'0 0.0
2017-Aug-12 15:58N 36°06' W 005°22'0 0.1
2017-Aug-12 15:25N 36°06' W 005°22'0 0.2
2017-Aug-12 14:58N 36°06' W 005°22'0 0.2
2017-Aug-12 14:28N 36°07' W 005°22'0 0.1
2017-Aug-12 13:58N 36°07' W 005°22'1 1.3
2017-Aug-12 13:19N 36°07' W 005°22'0 0.1
2017-Aug-12 12:55N 36°07' W 005°22'0 0.1
2017-Aug-12 12:28N 36°07' W 005°22'0 0.0
2017-Aug-12 08:55N 36°07' W 005°22'0 0.2
2017-Aug-12 08:19N 36°07' W 005°22'0 0.0
2017-Aug-12 07:58N 36°07' W 005°22'0 0.0
2017-Aug-12 07:28N 36°07' W 005°22'0 0.0
2017-Aug-12 06:58N 36°07' W 005°22'0 0.0
2017-Aug-12 05:31N 36°07' W 005°22'0 0.2
2017-Aug-12 05:28N 36°07' W 005°22'0 0.1
2017-Aug-12 04:58N 36°07' W 005°22'0 0.0
2017-Aug-12 01:55N 36°07' W 005°22'1 0.9
2017-Aug-12 01:18N 36°07' W 005°22'0 0.1
2017-Aug-12 00:57N 36°07' W 005°22'0 0.1
2017-Aug-12 00:24N 36°07' W 005°22'0 0.0
2017-Aug-12 00:00N 36°07' W 005°22'0 0.2
2017-Aug-11 23:18N 36°07' W 005°22'0 0.5
2017-Aug-11 22:59N 36°07' W 005°22'0 0.4
2017-Aug-11 22:30N 36°07' W 005°22'0 0.0
2017-Aug-11 22:00N 36°07' W 005°22'0 0.0
2017-Aug-11 21:30N 36°07' W 005°22'0 0.1
2017-Aug-11 21:00N 36°07' W 005°22'0 0.0
2017-Aug-11 20:30N 36°07' W 005°22'0 0.0
2017-Aug-11 20:00N 36°07' W 005°22'0 0.0
2017-Aug-11 19:30N 36°07' W 005°22'0 0.0
2017-Aug-11 19:00N 36°07' W 005°22'0 0.0
2017-Aug-11 18:30N 36°07' W 005°22'0 0.0
2017-Aug-11 18:00N 36°07' W 005°22'0 0.1
2017-Aug-11 17:01N 36°07' W 005°22'0 0.2
2017-Aug-11 16:49N 36°07' W 005°22'0 0.1
2017-Aug-11 16:26N 36°07' W 005°22'0 0.0
2017-Aug-11 15:56N 36°07' W 005°22'0 0.1
2017-Aug-11 15:30N 36°07' W 005°22'0 0.1
2017-Aug-11 15:00N 36°07' W 005°22'0 0.0
2017-Aug-11 14:30N 36°07' W 005°22'0 0.1
2017-Aug-11 13:30N 36°07' W 005°22'0 0.0
2017-Aug-11 13:00N 36°07' W 005°22'0 0.1
2017-Aug-11 12:29N 36°07' W 005°22'0 0.2
2017-Aug-11 12:00N 36°07' W 005°22'0 0.2
2017-Aug-11 11:30N 36°07' W 005°22'1 0.2
2017-Aug-11 05:38N 36°08' W 005°23'0 2.1
2017-Aug-11 05:30N 36°08' W 005°23'3 5.7
2017-Aug-11 05:00N 36°06' W 005°21'3 5.5
2017-Aug-11 04:30N 36°07' W 005°18'0 0.9
2017-Aug-11 03:59N 36°08' W 005°18'0 0.0
2017-Aug-11 03:29N 36°08' W 005°18'0 0.0
2017-Aug-11 02:59N 36°08' W 005°18'0 0.0
2017-Aug-11 02:29N 36°08' W 005°18'0 0.1
2017-Aug-11 01:56N 36°07' W 005°18'0 0.0
2017-Aug-11 01:29N 36°08' W 005°18'0 0.0
2017-Aug-10 23:44N 36°08' W 005°18'0 0.1
2017-Aug-10 23:29N 36°07' W 005°18'0 0.0
2017-Aug-10 22:59N 36°07' W 005°18'0 0.0
2017-Aug-10 22:29N 36°07' W 005°18'0 0.0
2017-Aug-10 21:59N 36°07' W 005°18'0 0.0
2017-Aug-10 21:29N 36°08' W 005°18'0 0.1
2017-Aug-10 20:56N 36°08' W 005°18'0 0.0
2017-Aug-10 20:29N 36°08' W 005°18'0 0.1
2017-Aug-10 19:59N 36°08' W 005°18'  
Track history (hours):
 
Tides and Currents Weather Stations Pressure Air Temp Water Temp Dewpoint Dewpoint Depression Visibility Wind Speed Wind Dir Waves Ship Positions

Ct Longford

Last reported at 2017-Aug-20 19:35 UTC. Time now 2017-Aug-20 21:07 UTC.
Position N 36°08' W 005°22'.

Length 117 m; draft 7 m.

Type: Tanker. MMSI: 249706000.

Date/timePositionNaut miles runAvg speedWind from/ knotsBaromVisibWave heightAir tempDewpointWater temp
2017-Aug-20 19:35N 36°08' W 005°22'0 0.5
2017-Aug-20 19:29N 36°08' W 005°22'0 0.5
2017-Aug-20 18:59N 36°08' W 005°22'0 0.0
2017-Aug-20 18:29N 36°08' W 005°22'0 0.0
2017-Aug-20 16:31N 36°08' W 005°22'0 0.6
2017-Aug-20 16:17N 36°08' W 005°22'1 4.7
2017-Aug-20 16:00N 36°08' W 005°23'1 1.0
2017-Aug-20 15:31N 36°09' W 005°23'0 0.2
2017-Aug-20 15:00N 36°09' W 005°23'1 2.6
2017-Aug-20 14:31N 36°08' W 005°25'1 0.1
2017-Aug-20 04:20N 36°08' W 005°26'2 3.8
2017-Aug-20 03:56N 36°09' W 005°24'1 2.9
2017-Aug-20 03:30N 36°08' W 005°22'0 0.0
2017-Aug-20 03:00N 36°08' W 005°22'0 0.1
2017-Aug-20 02:21N 36°08' W 005°22'0 0.0
2017-Aug-20 02:00N 36°08' W 005°22'0 0.1
2017-Aug-20 01:30N 36°08' W 005°22'0 0.0
2017-Aug-20 01:00N 36°08' W 005°22'0 0.0
2017-Aug-20 00:24N 36°08' W 005°22'0 0.0
2017-Aug-20 00:00N 36°08' W 005°22'0 0.0
2017-Aug-19 23:30N 36°08' W 005°22'0 0.0
2017-Aug-19 23:00N 36°08' W 005°22'0 0.2
2017-Aug-19 22:30N 36°08' W 005°22'1 1.1
2017-Aug-19 22:00N 36°08' W 005°22'1 1.7
2017-Aug-19 21:14N 36°07' W 005°22'0 0.1
2017-Aug-19 20:59N 36°07' W 005°22'0 0.0
2017-Aug-19 20:29N 36°07' W 005°22'0 0.4
2017-Aug-19 19:47N 36°07' W 005°22'0 0.0
2017-Aug-19 19:14N 36°07' W 005°22'0 0.1
2017-Aug-19 18:56N 36°07' W 005°22'0 0.1
2017-Aug-19 18:26N 36°07' W 005°22'0 0.5
2017-Aug-19 17:47N 36°07' W 005°22'0 0.1
2017-Aug-19 17:02N 36°07' W 005°22'0 0.1
2017-Aug-19 16:38N 36°07' W 005°22'0 0.1
2017-Aug-19 16:11N 36°07' W 005°22'0 0.1
2017-Aug-19 15:47N 36°07' W 005°22'0 0.1
2017-Aug-19 15:29N 36°07' W 005°22'0 0.0
2017-Aug-19 14:56N 36°07' W 005°22'0 0.0
2017-Aug-19 13:59N 36°07' W 005°22'0 0.0
2017-Aug-19 13:20N 36°07' W 005°22'0 0.0
2017-Aug-19 12:56N 36°07' W 005°22'0 0.0
2017-Aug-19 12:31N 36°07' W 005°22'0 0.0
2017-Aug-19 12:00N 36°07' W 005°22'0 0.1
2017-Aug-19 11:28N 36°07' W 005°22'0 0.1
2017-Aug-19 11:00N 36°07' W 005°22'3 0.5
2017-Aug-19 06:09N 36°09' W 005°22'0 0.0
2017-Aug-19 06:00N 36°09' W 005°22'0 0.1
2017-Aug-19 05:30N 36°09' W 005°22'0 0.1
2017-Aug-19 03:57N 36°09' W 005°23'0 0.3
2017-Aug-19 03:27N 36°09' W 005°22'0 0.0
2017-Aug-19 03:00N 36°09' W 005°22'0 0.0
2017-Aug-19 02:27N 36°09' W 005°22'0 0.0
2017-Aug-19 00:09N 36°09' W 005°22'0 0.1
2017-Aug-18 23:46N 36°09' W 005°22'1 3.8
2017-Aug-18 23:26N 36°08' W 005°22'1 3.0
2017-Aug-18 22:58N 36°07' W 005°22'0 0.0
2017-Aug-18 22:10N 36°07' W 005°22'0 0.1
2017-Aug-18 21:58N 36°07' W 005°22'0 0.0
2017-Aug-18 21:28N 36°07' W 005°22'0 0.0
2017-Aug-18 20:58N 36°07' W 005°22'0 0.0
2017-Aug-18 20:25N 36°07' W 005°22'0 0.0
2017-Aug-18 20:00N 36°07' W 005°22'0 0.2
2017-Aug-18 19:30N 36°07' W 005°22'1 2.9
2017-Aug-18 19:00N 36°08' W 005°23'0 0.7
2017-Aug-18 18:29N 36°08' W 005°23'1 0.8
2017-Aug-18 17:02N 36°07' W 005°22'0 0.2
2017-Aug-18 16:53N 36°07' W 005°22'0 0.1
2017-Aug-18 16:29N 36°07' W 005°22'0 0.2
2017-Aug-18 15:59N 36°07' W 005°22'0 0.4
2017-Aug-18 15:26N 36°07' W 005°22'0 0.1
2017-Aug-18 14:56N 36°07' W 005°22'0 0.1
2017-Aug-18 14:29N 36°07' W 005°22'0 0.1
2017-Aug-18 13:26N 36°07' W 005°22'0 0.1
2017-Aug-18 12:59N 36°07' W 005°22'2 1.1
2017-Aug-18 11:35N 36°09' W 005°22'0 0.0
2017-Aug-18 11:23N 36°09' W 005°22'0 0.1
2017-Aug-18 10:59N 36°09' W 005°22'0 0.0
2017-Aug-18 10:20N 36°09' W 005°22'2 0.1
2017-Aug-17 12:05N 36°07' W 005°21'0 0.1
2017-Aug-17 11:59N 36°07' W 005°21'0 0.0
2017-Aug-17 11:26N 36°07' W 005°21'0 0.0
2017-Aug-17 10:59N 36°07' W 005°21'0 0.0
2017-Aug-17 10:29N 36°07' W 005°21'0 0.1
2017-Aug-17 10:00N 36°07' W 005°21'1 1.7
2017-Aug-17 09:30N 36°07' W 005°22'2 1.4
2017-Aug-17 08:07N 36°09' W 005°23'0 0.2
2017-Aug-17 07:55N 36°09' W 005°23'3 0.1
2017-Aug-15 21:25N 36°08' W 005°26'0 0.0
2017-Aug-15 21:00N 36°08' W 005°26'2 1.1
2017-Aug-15 18:58N 36°09' W 005°23'2 3.3
2017-Aug-15 18:25N 36°07' W 005°22'0 0.1
2017-Aug-15 17:55N 36°07' W 005°22'0 0.0
2017-Aug-15 17:28N 36°07' W 005°22'0 0.1
2017-Aug-15 15:16N 36°07' W 005°22'0 0.0
2017-Aug-15 12:13N 36°07' W 005°22'0 0.2
2017-Aug-15 11:58N 36°07' W 005°22'0 0.3
2017-Aug-15 11:22N 36°07' W 005°22'0 0.1
2017-Aug-15 11:00N 36°07' W 005°22'2 0.9
2017-Aug-15 08:31N 36°09' W 005°23'0 0.3
2017-Aug-15 08:30N 36°09' W 005°23'2 3.5
2017-Aug-15 07:58N 36°07' W 005°22'0 0.7
2017-Aug-15 07:24N 36°07' W 005°22'0 0.0
2017-Aug-15 06:06N 36°07' W 005°22'0 0.0
2017-Aug-15 06:00N 36°07' W 005°22'0 0.0
2017-Aug-15 05:30N 36°07' W 005°22'0 0.2
2017-Aug-15 05:00N 36°07' W 005°22'0 0.2
2017-Aug-15 04:21N 36°07' W 005°22'0 0.0
2017-Aug-15 03:57N 36°07' W 005°22'0 0.0
2017-Aug-15 02:09N 36°07' W 005°22'0 0.2
2017-Aug-15 02:00N 36°07' W 005°22'0 0.1
2017-Aug-15 01:27N 36°07' W 005°22'1 2.8
2017-Aug-15 01:00N 36°08' W 005°23'2 3.0
2017-Aug-15 00:30N 36°09' W 005°23'0 0.2
2017-Aug-15 00:00N 36°09' W 005°23'0 0.1
2017-Aug-14 23:30N 36°09' W 005°23'2 0.1
2017-Aug-14 06:35N 36°08' W 005°22'0 0.1
2017-Aug-14 05:08N 36°08' W 005°22'0 0.1
2017-Aug-14 05:00N 36°08' W 005°22'0 0.3
2017-Aug-14 04:30N 36°08' W 005°22'1 0.5
2017-Aug-14 02:43N 36°09' W 005°22'0 0.5
2017-Aug-14 02:29N 36°09' W 005°22'1 2.9
2017-Aug-14 02:01N 36°07' W 005°22'0 0.3
2017-Aug-14 01:31N 36°07' W 005°22'0 0.1
2017-Aug-13 23:55N 36°07' W 005°22'0 0.1
2017-Aug-13 23:25N 36°07' W 005°22'0 0.0
2017-Aug-13 22:52N 36°07' W 005°22'0 0.0
2017-Aug-13 22:19N 36°07' W 005°22'0 0.2
2017-Aug-13 21:58N 36°07' W 005°22'0 0.0
2017-Aug-13 21:25N 36°07' W 005°22'0 0.0
2017-Aug-13 20:43N 36°07' W 005°22'0 0.3
2017-Aug-13 20:13N 36°07' W 005°22'1 4.3
2017-Aug-13 19:59N 36°08' W 005°23'0 0.1
2017-Aug-13 17:23N 36°08' W 005°23'0 0.1
2017-Aug-13 16:50N 36°08' W 005°23'0 0.1
2017-Aug-13 16:29N 36°08' W 005°23'0 0.0
2017-Aug-13 15:59N 36°08' W 005°23'0 0.1
2017-Aug-13 15:17N 36°08' W 005°23'0 0.1
2017-Aug-13 14:14N 36°08' W 005°23'0 0.1
2017-Aug-13 13:59N 36°08' W 005°23'0 0.1
2017-Aug-13 13:20N 36°08' W 005°23'0 0.3
2017-Aug-13 12:56N 36°08' W 005°23'0 0.2
2017-Aug-13 12:26N 36°08' W 005°23'0 0.1
2017-Aug-13 12:00N 36°08' W 005°23'2 2.2
2017-Aug-13 11:19N 36°09' W 005°22'0 0.2
2017-Aug-13 10:59N 36°09' W 005°22'0 0.0
2017-Aug-13 10:26N 36°09' W 005°22'0 0.0
2017-Aug-13 09:59N 36°09' W 005°22'0 0.1
2017-Aug-13 09:30N 36°09' W 005°22'2 3.8
2017-Aug-13 09:00N 36°08' W 005°23'3 6.5
2017-Aug-13 08:31N 36°05' W 005°20'3 5.0
2017-Aug-13 08:00N 36°07' W 005°18'0 0.1
2017-Aug-13 07:27N 36°07' W 005°18'0 0.0
2017-Aug-13 06:57N 36°07' W 005°18'0 0.0
2017-Aug-13 06:27N 36°07' W 005°18'0 0.3
2017-Aug-13 06:00N 36°07' W 005°18'2 4.3
2017-Aug-13 05:30N 36°06' W 005°20'2 3.7
2017-Aug-13 05:00N 36°06' W 005°22'0 0.4
2017-Aug-13 04:28N 36°06' W 005°22'0 0.1
2017-Aug-13 03:58N 36°06' W 005°22'0 0.0
2017-Aug-13 03:28N 36°06' W 005°22'0 0.0
2017-Aug-13 02:58N 36°06' W 005°22'0 0.0
2017-Aug-13 02:28N 36°06' W 005°22'0 0.0
2017-Aug-13 01:55N 36°06' W 005°22'0 0.1
2017-Aug-13 01:28N 36°07' W 005°22'0 0.0
2017-Aug-13 00:58N 36°07' W 005°22'0 0.1
2017-Aug-13 00:28N 36°07' W 005°22'0 0.1
2017-Aug-12 23:58N 36°06' W 005°22'0 0.0
2017-Aug-12 23:28N 36°06' W 005°22'0 0.0
2017-Aug-12 22:58N 36°06' W 005°22'0 0.0
2017-Aug-12 22:28N 36°06' W 005°22'0 0.1
2017-Aug-12 21:58N 36°06' W 005°22'0 0.1
2017-Aug-12 21:28N 36°06' W 005°22'0 0.0
2017-Aug-12 20:58N 36°06' W 005°22'0 0.0
2017-Aug-12 20:28N 36°06' W 005°22'0 0.0
2017-Aug-12 19:58N 36°06' W 005°22'0 0.0
2017-Aug-12 19:13N 36°06' W 005°22'0 0.0
2017-Aug-12 18:52N 36°06' W 005°22'0 0.0
2017-Aug-12 18:25N 36°06' W 005°22'0 0.0
2017-Aug-12 17:58N 36°06' W 005°22'0 0.0
2017-Aug-12 17:28N 36°06' W 005°22'0 0.0
2017-Aug-12 16:58N 36°06' W 005°22'0 0.0
2017-Aug-12 16:28N 36°06' W 005°22'0 0.0
2017-Aug-12 15:58N 36°06' W 005°22'0 0.1
2017-Aug-12 15:25N 36°06' W 005°22'0 0.2
2017-Aug-12 14:58N 36°06' W 005°22'0 0.2
2017-Aug-12 14:28N 36°07' W 005°22'0 0.1
2017-Aug-12 13:58N 36°07' W 005°22'1 1.3
2017-Aug-12 13:19N 36°07' W 005°22'0 0.1
2017-Aug-12 12:55N 36°07' W 005°22'0 0.1
2017-Aug-12 12:28N 36°07' W 005°22'0 0.0
2017-Aug-12 08:55N 36°07' W 005°22'0 0.2
2017-Aug-12 08:19N 36°07' W 005°22'0 0.0
2017-Aug-12 07:58N 36°07' W 005°22'0 0.0
2017-Aug-12 07:28N 36°07' W 005°22'0 0.0
2017-Aug-12 06:58N 36°07' W 005°22'0 0.0
2017-Aug-12 05:31N 36°07' W 005°22'0 0.2
2017-Aug-12 05:28N 36°07' W 005°22'0 0.1
2017-Aug-12 04:58N 36°07' W 005°22'0 0.0
2017-Aug-12 01:55N 36°07' W 005°22'1 0.9
2017-Aug-12 01:18N 36°07' W 005°22'0 0.1
2017-Aug-12 00:57N 36°07' W 005°22'0 0.1
2017-Aug-12 00:24N 36°07' W 005°22'0 0.0
2017-Aug-12 00:00N 36°07' W 005°22'0 0.2
2017-Aug-11 23:18N 36°07' W 005°22'0 0.5
2017-Aug-11 22:59N 36°07' W 005°22'0 0.4
2017-Aug-11 22:30N 36°07' W 005°22'0 0.0
2017-Aug-11 22:00N 36°07' W 005°22'0 0.0
2017-Aug-11 21:30N 36°07' W 005°22'0 0.1
2017-Aug-11 21:00N 36°07' W 005°22'0 0.0
2017-Aug-11 20:30N 36°07' W 005°22'0 0.0
2017-Aug-11 20:00N 36°07' W 005°22'0 0.0
2017-Aug-11 19:30N 36°07' W 005°22'0 0.0
2017-Aug-11 19:00N 36°07' W 005°22'0 0.0
2017-Aug-11 18:30N 36°07' W 005°22'0 0.0
2017-Aug-11 18:00N 36°07' W 005°22'0 0.1
2017-Aug-11 17:01N 36°07' W 005°22'0 0.2
2017-Aug-11 16:49N 36°07' W 005°22'0 0.1
2017-Aug-11 16:26N 36°07' W 005°22'0 0.0
2017-Aug-11 15:56N 36°07' W 005°22'0 0.1
2017-Aug-11 15:30N 36°07' W 005°22'0 0.1
2017-Aug-11 15:00N 36°07' W 005°22'0 0.0
2017-Aug-11 14:30N 36°07' W 005°22'0 0.1
2017-Aug-11 13:30N 36°07' W 005°22'0 0.0
2017-Aug-11 13:00N 36°07' W 005°22'0 0.1
2017-Aug-11 12:29N 36°07' W 005°22'0 0.2
2017-Aug-11 12:00N 36°07' W 005°22'0 0.2
2017-Aug-11 11:30N 36°07' W 005°22'1 0.2
2017-Aug-11 05:38N 36°08' W 005°23'0 2.1
2017-Aug-11 05:30N 36°08' W 005°23'3 5.7
2017-Aug-11 05:00N 36°06' W 005°21'3 5.5
2017-Aug-11 04:30N 36°07' W 005°18'0 0.9
2017-Aug-11 03:59N 36°08' W 005°18'0 0.0
2017-Aug-11 03:29N 36°08' W 005°18'0 0.0
2017-Aug-11 02:59N 36°08' W 005°18'0 0.0
2017-Aug-11 02:29N 36°08' W 005°18'0 0.1
2017-Aug-11 01:56N 36°07' W 005°18'0 0.0
2017-Aug-11 01:29N 36°08' W 005°18'0 0.0
2017-Aug-10 23:44N 36°08' W 005°18'0 0.1
2017-Aug-10 23:29N 36°07' W 005°18'0 0.0
2017-Aug-10 22:59N 36°07' W 005°18'0 0.0
2017-Aug-10 22:29N 36°07' W 005°18'0 0.0
2017-Aug-10 21:59N 36°07' W 005°18'0 0.0
2017-Aug-10 21:29N 36°08' W 005°18'0 0.1
2017-Aug-10 20:56N 36°08' W 005°18'0 0.0
2017-Aug-10 20:29N 36°08' W 005°18'0 0.1
2017-Aug-10 19:59N 36°08' W 005°18'  

Dump ship's entire track history